Meteorología y climatología de Navarra
Datos de la estación - Meteo Navarra

Estación de Aguilar de Codés GN

Altitud 736 m.


Datos desde el 11/01/2019 hasta el 12/01/2019 en horario solar
Los datos son PROVISIONALES

Anterior Página 1 de 1 Siguiente Descargar: Formato para Excel 2000 o superior   Formato csv   Formato para OpenOffice Calc
Fecha Temperatura Humedad relativa Radiación global Insolación Precipitación Vel. viento 10 m Vel. viento 10 m Dir. viento 10 m
ºC % W/m² s l/m² m/s km/h º
11/01/2019 0:00 -0.1 72 0.0 0 0.0 4.4 15.7 305
11/01/2019 0:10 -0.3 72 0.0 0 0.0 3.6 13.0 288
11/01/2019 0:20 -0.1 72 0.0 0 0.0 3.7 13.5 306
11/01/2019 0:30 -0.0 72 0.0 0 0.0 5.3 19.0 297
11/01/2019 0:40 -0.3 71 0.0 0 0.0 5.3 19.2 315
11/01/2019 0:50 -0.2 72 0.0 0 0.0 6.9 24.7 319
11/01/2019 1:00 -0.2 73 0.0 0 0.0 5.5 19.7 319
11/01/2019 1:10 -0.2 75 0.0 0 0.0 5.5 19.7 319
11/01/2019 1:20 -0.3 75 0.0 0 0.0 5.8 20.7 323
11/01/2019 1:30 -0.2 74 0.0 0 0.0 6.4 23.2 324
11/01/2019 1:40 -0.2 74 0.0 0 0.0 7.0 25.3 325
11/01/2019 1:50 -0.2 73 0.0 0 0.0 7.7 27.7 325
11/01/2019 2:00 -0.3 72 0.0 0 0.0 8.0 28.6 326
11/01/2019 2:10 -0.2 71 0.0 0 0.0 7.8 28.0 318
11/01/2019 2:20 -0.2 71 0.0 0 0.0 6.3 22.7 323
11/01/2019 2:30 -0.2 71 0.0 0 0.0 5.6 20.1 321
11/01/2019 2:40 -0.3 71 0.0 0 0.0 4.3 15.4 313
11/01/2019 2:50 -0.3 70 0.0 0 0.0 4.3 15.6 337
11/01/2019 3:00 -0.4 70 0.0 0 0.0 4.0 14.2 312
11/01/2019 3:10 -0.7 71 0.0 0 0.0 3.8 13.8 314
11/01/2019 3:20 -0.7 71 0.0 0 0.0 5.5 19.7 315
11/01/2019 3:30 -0.6 71 0.0 0 0.0 4.5 16.3 325
11/01/2019 3:40 -0.7 72 0.0 0 0.0 5.2 18.8 336
11/01/2019 3:50 -0.8 73 0.0 0 0.0 5.0 17.8 346
11/01/2019 4:00 -0.8 73 0.0 0 0.0 5.5 19.9 339
11/01/2019 4:10 -0.8 73 0.0 0 0.0 7.1 25.5 348
11/01/2019 4:20 -0.8 74 0.0 0 0.0 5.5 19.7 347
11/01/2019 4:30 -0.8 74 0.0 0 0.0 5.6 20.0 349
11/01/2019 4:40 -0.9 73 0.0 0 0.0 7.1 25.7 325
11/01/2019 4:50 -0.9 72 0.0 0 0.0 7.1 25.7 327
11/01/2019 5:00 -0.9 72 0.0 0 0.0 7.1 25.5 326
11/01/2019 5:10 -0.9 73 0.0 0 0.0 6.1 22.0 325
11/01/2019 5:20 -1.1 75 0.0 0 0.0 6.6 23.9 325
11/01/2019 5:30 -1.4 78 0.0 0 0.0 6.0 21.5 323
11/01/2019 5:40 -1.3 77 0.0 0 0.0 6.9 24.9 323
11/01/2019 5:50 -1.3 78 0.0 0 0.0 6.2 22.5 322
11/01/2019 6:00 -1.2 78 0.0 0 0.0 6.8 24.4 324
11/01/2019 6:10 -1.1 76 0.0 0 0.0 7.6 27.4 326
11/01/2019 6:20 -1.0 77 0.0 0 0.0 6.2 22.1 329
11/01/2019 6:30 -0.9 77 0.0 0 0.0 6.7 24.2 326
11/01/2019 6:40 -0.9 77 0.0 0 0.0 6.3 22.7 343
11/01/2019 6:50 -0.8 78 0.0 0 0.0 6.8 24.6 338
11/01/2019 7:00 -1.0 78 0.0 0 0.0 6.4 22.9 343
11/01/2019 7:10 -0.8 78 0.0 0 0.0 6.1 21.8 340
11/01/2019 7:20 -1.0 78 0.0 0 0.0 6.8 24.5 332
11/01/2019 7:30 -0.9 78 0.0 0 0.0 6.1 21.8 343
11/01/2019 7:40 -0.8 78 0.0 0 0.0 6.0 21.5 343
11/01/2019 7:50 -0.9 78 7.5 0 0.0 5.1 18.4 330
11/01/2019 8:00 -0.9 78 22.1 0 0.0 6.2 22.3 330
11/01/2019 8:10 -0.7 78 34.9 428 0.0 6.7 24.1 324
11/01/2019 8:20 -0.8 77 70.1 600 0.0 6.4 23.0 318
11/01/2019 8:30 -0.6 77 96.0 600 0.0 5.5 19.9 320
11/01/2019 8:40 -0.5 76 115.6 600 0.0 5.2 18.6 323
11/01/2019 8:50 -0.3 75 129.0 524 0.0 4.2 15.2 316
11/01/2019 9:00 -0.2 74 168.7 600 0.0 5.0 18.0 316
11/01/2019 9:10 -0.1 71 182.0 568 0.0 4.3 15.4 328
11/01/2019 9:20 -0.0 71 186.5 490 0.0 3.1 11.3 317
11/01/2019 9:30 0.0 70 181.7 408 0.0 4.0 14.2 309
11/01/2019 9:40 0.0 70 146.0 238 0.0 4.3 15.4 315
11/01/2019 9:50 0.1 69 136.7 162 0.0 3.4 12.1 307
11/01/2019 10:00 0.2 68 86.7 8 0.0 3.3 12.0 320
11/01/2019 10:10 0.0 69 94.8 6 0.0 4.1 14.6 318
11/01/2019 10:20 0.1 69 104.6 14 0.0 4.5 16.1 321
11/01/2019 10:30 0.4 67 107.7 22 0.0 5.2 18.5 324
11/01/2019 10:40 0.7 66 110.3 6 0.0 5.6 20.1 330
11/01/2019 10:50 0.9 65 100.4 0 0.0 5.0 18.1 330
11/01/2019 11:00 0.9 66 126.1 36 0.0 4.7 17.0 325
11/01/2019 11:10 1.1 63 118.2 14 0.0 4.7 16.9 346
11/01/2019 11:20 1.2 63 117.6 32 0.0 3.2 11.5 329
11/01/2019 11:30 1.2 63 105.9 0 0.0 3.6 13.0 344
11/01/2019 11:40 1.4 61 404.7 496 0.0 4.9 17.6 347
11/01/2019 11:50 2.4 59 504.9 600 0.0 2.5 8.9 321
11/01/2019 12:00 2.5 57 439.6 528 0.0 4.2 15.0 342
11/01/2019 12:10 2.3 55 398.2 442 0.0 4.3 15.6 342
11/01/2019 12:20 2.7 55 508.6 596 0.0 4.9 17.5 356
11/01/2019 12:30 2.7 55 476.8 538 0.0 5.2 18.5 356
11/01/2019 12:40 3.0 57 426.5 474 0.0 5.0 18.0 343
11/01/2019 12:50 2.7 58 283.2 254 0.0 4.6 16.6 345
11/01/2019 13:00 2.5 59 189.9 94 0.0 4.2 15.0 336
11/01/2019 13:10 2.5 61 190.7 104 0.0 6.5 23.5 343
11/01/2019 13:20 2.5 61 131.1 12 0.0 4.4 15.7 345
11/01/2019 13:30 2.8 61 140.4 70 0.0 2.9 10.6 20
11/01/2019 13:40 2.7 61 115.1 12 0.0 3.2 11.4 354
11/01/2019 13:50 2.8 62 115.9 16 0.0 2.7 9.6 253
11/01/2019 14:00 2.6 62 117.8 34 0.0 2.3 8.4 335
11/01/2019 14:10 2.7 62 100.3 22 0.0 4.3 15.5 357
11/01/2019 14:20 2.5 63 78.8 0 0.0 7.0 25.2 347
11/01/2019 14:30 2.4 64 99.1 48 0.0 6.3 22.5 345
11/01/2019 14:40 2.7 63 249.1 430 0.0 5.3 19.2 341
11/01/2019 14:50 2.8 62 190.0 312 0.0 5.1 18.4 340
11/01/2019 15:00 2.7 63 264.1 532 0.0 5.7 20.4 345
11/01/2019 15:10 2.8 63 251.6 526 0.0 6.9 24.8 349
11/01/2019 15:20 2.8 63 258.4 600 0.0 6.4 23.2 343
11/01/2019 15:30 2.7 64 241.3 600 0.0 5.5 19.9 326
11/01/2019 15:40 2.8 64 219.1 600 0.0 5.9 21.2 314
11/01/2019 15:50 2.6 65 191.4 600 0.0 6.0 21.7 312
11/01/2019 16:00 2.6 65 131.0 452 0.0 5.3 19.0 293
11/01/2019 16:10 2.5 67 64.1 142 0.0 5.0 17.8 289
11/01/2019 16:20 2.4 68 51.9 124 0.0 5.8 20.8 296
11/01/2019 16:30 2.3 68 37.5 172 0.0 4.4 15.9 302
11/01/2019 16:40 2.3 69 22.7 0 0.0 5.5 19.8 306
11/01/2019 16:50 2.1 70 3.0 0 0.0 5.2 18.9 306
11/01/2019 17:00 2.1 71 0.0 0 0.0 5.9 21.1 301
11/01/2019 17:10 2.0 71 0.0 0 0.0 5.2 18.7 320
11/01/2019 17:20 2.0 72 0.0 0 0.0 5.1 18.2 303
11/01/2019 17:30 2.0 74 0.0 0 0.0 6.0 21.7 316
11/01/2019 17:40 2.1 75 0.0 0 0.0 4.7 16.7 306
11/01/2019 17:50 1.9 77 0.0 0 0.0 5.6 20.2 316
11/01/2019 18:00 2.0 78 0.0 0 0.0 6.4 22.9 330
11/01/2019 18:10 1.8 80 0.0 0 0.0 6.2 22.2 331
11/01/2019 18:20 1.7 82 0.0 0 0.0 6.0 21.6 333
11/01/2019 18:30 1.5 84 0.0 0 0.0 5.8 21.0 331
11/01/2019 18:40 1.5 86 0.0 0 0.0 6.0 21.6 326
11/01/2019 18:50 1.3 89 0.0 0 0.0 6.0 21.6 321
11/01/2019 19:00 1.3 90 0.0 0 0.0 4.8 17.1 320
11/01/2019 19:10 1.3 90 0.0 0 0.0 4.5 16.3 314
11/01/2019 19:20 1.2 91 0.0 0 0.0 4.5 16.3 314
11/01/2019 19:30 1.1 92 0.0 0 0.0 4.0 14.5 305
11/01/2019 19:40 1.0 92 0.0 0 0.0 4.2 15.1 300
11/01/2019 19:50 1.1 92 0.0 0 0.0 3.9 14.1 296
11/01/2019 20:00 1.2 92 0.0 0 0.0 3.1 11.0 284
11/01/2019 20:10 1.3 92 0.0 0 0.0 3.1 11.3 273
11/01/2019 20:20 1.3 93 0.0 0 0.0 3.1 11.0 272
11/01/2019 20:30 1.2 92 0.0 0 0.0 3.6 13.0 282
11/01/2019 20:40 1.2 93 0.0 0 0.0 3.9 13.9 279
11/01/2019 20:50 1.2 93 0.0 0 0.0 3.5 12.6 301
11/01/2019 21:00 1.3 93 0.0 0 0.0 4.2 15.0 313
11/01/2019 21:10 1.3 93 0.0 0 0.0 3.7 13.4 303
11/01/2019 21:20 1.4 92 0.0 0 0.0 3.3 11.8 285
11/01/2019 21:30 1.5 92 0.0 0 0.0 3.4 12.2 273
11/01/2019 21:40 1.5 92 0.0 0 0.0 4.6 16.5 292
11/01/2019 21:50 1.6 91 0.0 0 0.0 5.0 18.1 314
11/01/2019 22:00 1.6 92 0.0 0 0.0 4.5 16.1 311
11/01/2019 22:10 1.6 92 0.0 0 0.0 4.3 15.6 308
11/01/2019 22:20 1.7 93 0.0 0 0.0 4.0 14.4 288
11/01/2019 22:30 1.7 93 0.0 0 0.0 4.5 16.1 289
11/01/2019 22:40 1.7 93 0.0 0 0.0 4.0 14.3 285
11/01/2019 22:50 1.8 94 0.0 0 0.0 3.4 12.2 284
11/01/2019 23:00 1.9 94 0.0 0 0.0 3.7 13.3 294
11/01/2019 23:10 1.8 94 0.0 0 0.0 3.8 13.8 292
11/01/2019 23:20 1.8 94 0.0 0 0.0 3.4 12.1 298
11/01/2019 23:30 2.0 95 0.0 0 0.0 3.5 12.5 287
11/01/2019 23:40 2.0 95 0.0 0 0.0 3.4 12.1 283
11/01/2019 23:50 1.9 95 0.0 0 0.0 3.7 13.2 281
Anterior Página 1 de 1 Siguiente

NOTA: Tipo de datos según el color:
   - Valores diarios o 10 minutos correctos
   - Valores diarios calculados a partir de un número de datos 10 minutos menor que 144 y mayor que 120, o de un número de datos semihorarios menor que 48 y mayor que 40 (caso de las estaciones de Riegos de Navarra y del MARM)
   - Valores diez minutos estimados


Contacto        Enlaces        Aviso legal